رامسر, ایران

09:45 AM IRDT on آوریل 28, 2015 (GMT +0430)
Ramsar | | Change Station
CLOSE
Current Station
Airport
Location: Ramsar,
Elevation: -66 ft
Nearby Weather Stations

Elev -66 ft 36.91 °N, 50.68 °E | Updated 1 hour ago

Clear
صاف
61 °F
Feels Like 61 °F
N
0
باد متغير باد from شمال

امروز
High -- | Low -- °F
--% Chance of Precip.
دیروز
High -- | Low -- °F
Precip. -- در
6:17 AM 7:52 PM
Waxing Gibbous, 71% visible
فشار 30.04 در
ديد -9999.0 مايل، ميل (در برابر كيلومتر
ابری
قطره شبنم 54 °F
رطوبت 77%
بارش باران 0.00 در
برف عمیق Not available.
مادون قرمز Not available.
Pollen Not available.
تمیزی هوا Not available.
Flu Activity Not available.
METAR OINR 280400Z 00000KT CAVOK 16/12 Q1017

More Conditions Fewer Conditions

فشار 30.04 در
ديد -9999.0 مايل، ميل (در برابر كيلومتر
ابری
قطره شبنم 54 °F
رطوبت 77%
بارش باران 0.00 در
برف عمیق Not available.
مادون قرمز Not available.
Pollen Not available.
تمیزی هوا Not available.
Flu Activity Not available.
METAR OINR 280400Z 00000KT CAVOK 16/12 Q1017

More Conditions Fewer Conditions

10-Day Weather Forecast

Almanac

ستاره شناسی

Apr. 28, 2015 Rise Set
وقت حقیقی
تاریک و روشن اجتماعی
تاریک روشن دریایی
شفق و فلق نجومی
ماه
میزان روشنایی روز
طول روز
Tomorrow will be .
, % of the Moon is Illuminated

Today's Extremes

Country Highs Country Lows

Community

WunderPhotos

Upload Photos

1,817,584 photos uploaded!

WunderBlogs® & News

Nearby

تمیزی هوا

  تمیزی هوا AQ Index آلاینده
Not available.

عمق برف

Station Depth Elevation

Earthquake Activity

شهر Distance Mag. Time & Date
Minimum magnitude displayed is 2.5.

Coastal Water Temperatures

منطقه درجه حرارت

Stations

Nearby Weather Stations

Station Location دما باد سرد قطره شبنم رطوبت باد Precip. Elev ارتقا دادن Type